createdAt,value
2022-09-29T00:02:05.057Z,98928.94
2022-09-29T00:04:34.069Z,98928.61
2022-09-29T00:07:02.724Z,98925.31
2022-09-29T00:09:31.697Z,98914.58
2022-09-29T00:12:00.287Z,98913.77
2022-09-29T00:14:29.142Z,98907.74
2022-09-29T00:16:57.550Z,98906.09
2022-09-29T00:19:28.394Z,98915.48
2022-09-29T00:21:57.481Z,98919.60
2022-09-29T00:24:26.452Z,98918.08
2022-09-29T00:26:54.954Z,98918.80
2022-09-29T00:29:23.988Z,98919.15
2022-09-29T00:31:52.728Z,98919.86
2022-09-29T00:34:21.335Z,98913.86
2022-09-29T00:36:49.857Z,98916.48
2022-09-29T00:39:19.121Z,98916.59
2022-09-29T00:41:47.573Z,98919.80
2022-09-29T00:44:55.481Z,98923.34
2022-09-29T00:47:25.493Z,98924.30
2022-09-29T00:49:58.939Z,98922.47
2022-09-29T00:52:30.822Z,98919.88
2022-09-29T00:55:05.098Z,98925.83
2022-09-29T00:57:40.700Z,98933.66
2022-09-29T01:00:15.259Z,98934.27
2022-09-29T01:02:48.937Z,98936.02
2022-09-29T01:05:24.313Z,98932.69
2022-09-29T01:07:53.786Z,98934.67
2022-09-29T01:10:23.269Z,98935.21
2022-09-29T01:12:51.818Z,98935.90
2022-09-29T01:15:22.972Z,98935.58
2022-09-29T01:17:53.291Z,98941.72
2022-09-29T01:20:25.237Z,98946.86
2022-09-29T01:23:32.049Z,98943.73
2022-09-29T01:26:24.399Z,98950.61
2022-09-29T01:29:31.915Z,98953.45
2022-09-29T01:32:11.444Z,98955.59
2022-09-29T01:34:48.964Z,98956.98
2022-09-29T01:37:27.877Z,98955.61
2022-09-29T01:40:07.847Z,98954.70
2022-09-29T01:42:43.988Z,98961.77
2022-09-29T01:45:18.853Z,98963.86
2022-09-29T01:47:52.379Z,98967.83
2022-09-29T01:50:27.238Z,98966.09
2022-09-29T01:53:01.144Z,98963.64
2022-09-29T01:55:36.304Z,98961.13
2022-09-29T01:58:09.485Z,98965.03
2022-09-29T02:00:48.797Z,98970.34
2022-09-29T02:03:21.780Z,98970.41
2022-09-29T02:05:53.775Z,98971.51
2022-09-29T02:08:32.114Z,98967.71
2022-09-29T02:11:02.322Z,98968.73
2022-09-29T02:13:35.969Z,98969.63
2022-09-29T02:16:12.971Z,98972.42
2022-09-29T02:18:48.213Z,98973.25
2022-09-29T02:21:17.365Z,98977.77
2022-09-29T02:23:45.887Z,98985.05
2022-09-29T02:26:17.304Z,98989.89
2022-09-29T02:28:46.087Z,98989.20
2022-09-29T02:31:18.260Z,98991.77
2022-09-29T02:33:46.986Z,98995.10
2022-09-29T02:36:25.461Z,98990.82
2022-09-29T02:39:02.835Z,98992.80
2022-09-29T02:41:43.597Z,98994.48
2022-09-29T02:44:28.937Z,99004.96
2022-09-29T02:47:17.603Z,99003.27
2022-09-29T02:50:01.601Z,99003.34
2022-09-29T02:52:37.711Z,99013.59
2022-09-29T02:55:14.399Z,99023.69
2022-09-29T02:57:51.422Z,99025.65
2022-09-29T03:00:21.955Z,99013.70
2022-09-29T03:02:50.290Z,99009.52
2022-09-29T03:05:22.053Z,99005.13
2022-09-29T03:07:50.553Z,99012.77
2022-09-29T03:10:19.809Z,99018.55
2022-09-29T03:12:49.138Z,99023.56
2022-09-29T03:15:18.654Z,99024.48
2022-09-29T03:17:47.551Z,99028.57
2022-09-29T03:20:17.569Z,99033.48
2022-09-29T03:22:45.855Z,99039.27
2022-09-29T03:25:15.645Z,99044.66
2022-09-29T03:27:46.293Z,99043.63
2022-09-29T03:30:17.722Z,99047.44
2022-09-29T03:32:46.394Z,99049.71
2022-09-29T03:35:16.399Z,99044.69
2022-09-29T03:37:45.118Z,99038.30
2022-09-29T03:40:14.935Z,99039.63
2022-09-29T03:42:47.072Z,99046.67
2022-09-29T03:45:17.327Z,99055.31
2022-09-29T03:48:10.244Z,99056.60
2022-09-29T03:50:40.063Z,99057.73
2022-09-29T03:53:08.919Z,99057.23
2022-09-29T03:55:41.588Z,99063.41
2022-09-29T03:58:20.065Z,99060.55
2022-09-29T04:00:49.915Z,99054.95
2022-09-29T04:03:20.414Z,99055.28
2022-09-29T04:05:50.414Z,99050.38
2022-09-29T04:08:19.473Z,99048.36
2022-09-29T04:10:51.522Z,99054.83
2022-09-29T04:13:22.030Z,99052.82
2022-09-29T04:15:52.911Z,99056.39
2022-09-29T04:18:21.813Z,99052.27
2022-09-29T04:20:54.726Z,99052.45
2022-09-29T04:23:25.115Z,99058.70
2022-09-29T04:25:54.091Z,99061.70
2022-09-29T04:28:22.767Z,99064.53
2022-09-29T04:30:51.606Z,99073.45
2022-09-29T04:33:31.296Z,99074.61
2022-09-29T04:36:10.187Z,99070.88
2022-09-29T04:38:38.683Z,99070.09
2022-09-29T04:41:08.919Z,99073.20
2022-09-29T04:43:38.053Z,99077.23
2022-09-29T04:46:11.099Z,99078.97
2022-09-29T04:48:45.421Z,99080.95
2022-09-29T04:51:17.119Z,99084.45
2022-09-29T04:53:46.178Z,99081.84
2022-09-29T04:56:26.282Z,99078.33
2022-09-29T05:01:40.042Z,99077.27
2022-09-29T05:04:10.161Z,99078.61
2022-09-29T05:06:39.153Z,99075.77
2022-09-29T05:09:08.733Z,99078.91
2022-09-29T05:11:38.419Z,99079.30
2022-09-29T05:14:10.556Z,99087.34
2022-09-29T05:16:42.191Z,99093.75
2022-09-29T05:19:11.110Z,99100.23
2022-09-29T05:21:41.088Z,99101.41
2022-09-29T05:24:10.588Z,99104.95
2022-09-29T05:26:39.509Z,99111.16
2022-09-29T05:29:08.034Z,99113.14
2022-09-29T05:31:41.707Z,99117.16
2022-09-29T05:34:15.967Z,99120.44
2022-09-29T05:36:47.565Z,99122.29
2022-09-29T05:39:20.549Z,99125.17
2022-09-29T05:41:50.294Z,99124.14
2022-09-29T05:44:18.969Z,99129.27
2022-09-29T05:46:53.648Z,99129.01
2022-09-29T05:49:33.864Z,99132.61
2022-09-29T05:52:02.696Z,99133.87
2022-09-29T05:54:31.343Z,99138.14
2022-09-29T05:56:59.940Z,99138.55
2022-09-29T05:59:28.837Z,99140.39
2022-09-29T06:01:57.860Z,99140.20
2022-09-29T06:04:27.585Z,99138.88
2022-09-29T06:06:57.002Z,99139.21
2022-09-29T06:09:27.146Z,99139.59
2022-09-29T06:11:58.745Z,99144.75
2022-09-29T06:14:27.934Z,99147.69
2022-09-29T06:16:56.958Z,99153.47
2022-09-29T06:19:25.645Z,99159.08
2022-09-29T06:21:57.305Z,99164.14
2022-09-29T06:24:27.297Z,99167.86
2022-09-29T06:26:56.075Z,99166.69
2022-09-29T06:29:24.841Z,99167.11
2022-09-29T06:31:58.237Z,99166.95
2022-09-29T06:34:28.974Z,99169.89
2022-09-29T06:37:17.864Z,99171.54
2022-09-29T06:39:56.211Z,99171.02
2022-09-29T06:42:28.796Z,99175.73
2022-09-29T06:45:01.491Z,99177.65
2022-09-29T06:47:32.258Z,99178.39
2022-09-29T06:50:14.231Z,99173.89
2022-09-29T06:53:04.062Z,99174.66
2022-09-29T06:55:33.301Z,99181.14
2022-09-29T06:58:04.558Z,99187.55
2022-09-29T07:00:35.799Z,99188.81
2022-09-29T07:03:07.495Z,99192.94
2022-09-29T07:05:39.633Z,99197.11
2022-09-29T07:08:08.886Z,99201.96
2022-09-29T07:10:39.918Z,99201.70
2022-09-29T07:13:09.447Z,99202.45
2022-09-29T07:15:41.100Z,99203.41
2022-09-29T07:18:10.398Z,99210.16
2022-09-29T07:20:40.235Z,99209.08
2022-09-29T07:23:11.271Z,99211.79
2022-09-29T07:25:51.565Z,99215.97
2022-09-29T07:28:21.543Z,99220.46
2022-09-29T07:31:13.084Z,99221.56
2022-09-29T07:33:46.324Z,99220.35
2022-09-29T07:39:27.800Z,99230.77
2022-09-29T07:42:06.121Z,99231.48
2022-09-29T07:44:52.037Z,99238.97
2022-09-29T07:47:21.373Z,99238.02
2022-09-29T07:49:50.151Z,99240.98
2022-09-29T07:52:20.594Z,99248.14
2022-09-29T07:54:52.650Z,99245.95
2022-09-29T07:57:22.742Z,99246.48
2022-09-29T07:59:54.106Z,99250.14
2022-09-29T08:02:26.374Z,99254.29
2022-09-29T08:05:00.649Z,99258.48
2022-09-29T08:07:36.299Z,99261.77
2022-09-29T08:10:17.381Z,99261.78
2022-09-29T08:13:07.543Z,99263.98
2022-09-29T08:15:37.300Z,99263.07
2022-09-29T08:18:07.220Z,99264.36
2022-09-29T08:20:40.237Z,99268.48
2022-09-29T08:23:08.742Z,99269.29
2022-09-29T08:25:37.567Z,99271.61
2022-09-29T08:28:06.043Z,99274.39
2022-09-29T08:30:34.815Z,99270.09
2022-09-29T08:33:03.979Z,99265.80
2022-09-29T08:35:32.544Z,99269.67
2022-09-29T08:38:00.935Z,99275.77
2022-09-29T08:40:31.584Z,99277.52
2022-09-29T08:43:11.073Z,99280.21
2022-09-29T08:45:59.430Z,99282.14
2022-09-29T08:48:42.793Z,99282.75
2022-09-29T08:51:38.785Z,99284.63
2022-09-29T08:54:33.685Z,99290.95
2022-09-29T08:57:06.132Z,99298.45
2022-09-29T08:59:34.728Z,99303.98
2022-09-29T09:02:40.822Z,99307.38
2022-09-29T09:05:21.564Z,99305.83
2022-09-29T09:08:03.501Z,99304.39
2022-09-29T09:10:44.064Z,99304.67
2022-09-29T09:13:31.395Z,99309.92
2022-09-29T09:16:17.794Z,99308.97
2022-09-29T09:19:10.346Z,99310.52
2022-09-29T09:21:43.759Z,99311.29
2022-09-29T09:24:24.757Z,99310.27
2022-09-29T09:26:56.675Z,99314.35
2022-09-29T09:29:37.394Z,99314.63
2022-09-29T09:32:14.227Z,99317.75
2022-09-29T09:34:47.830Z,99321.20
2022-09-29T09:37:23.675Z,99323.17
2022-09-29T09:40:06.285Z,99326.04
2022-09-29T09:42:39.096Z,99326.00
2022-09-29T09:45:14.480Z,99328.78
2022-09-29T09:47:49.189Z,99329.39
2022-09-29T09:50:24.928Z,99332.46
2022-09-29T09:52:56.681Z,99336.44
2022-09-29T09:55:36.177Z,99340.04
2022-09-29T09:58:25.330Z,99345.27
2022-09-29T10:00:58.109Z,99345.29
2022-09-29T10:03:29.443Z,99350.26
2022-09-29T10:05:59.409Z,99355.90
2022-09-29T10:08:30.544Z,99356.50
2022-09-29T10:10:59.931Z,99355.36
2022-09-29T10:13:30.319Z,99362.27
2022-09-29T10:16:03.703Z,99367.25
2022-09-29T10:18:39.772Z,99367.91
2022-09-29T10:21:21.611Z,99369.64
2022-09-29T10:23:52.914Z,99374.20
2022-09-29T10:26:26.062Z,99381.77
2022-09-29T10:28:58.462Z,99379.81
2022-09-29T10:31:31.454Z,99385.52
2022-09-29T10:34:02.748Z,99385.83
2022-09-29T10:36:48.707Z,99387.35
2022-09-29T10:39:40.373Z,99387.19
2022-09-29T10:42:26.839Z,99389.61
2022-09-29T10:45:01.966Z,99390.40
2022-09-29T10:47:30.777Z,99389.00
2022-09-29T10:50:16.407Z,99393.90
2022-09-29T10:52:52.981Z,99392.41
2022-09-29T10:55:23.675Z,99396.24
2022-09-29T10:57:54.339Z,99392.80
2022-09-29T11:00:32.573Z,99394.00
2022-09-29T11:03:19.580Z,99398.00
2022-09-29T11:05:54.449Z,99400.18
2022-09-29T11:08:27.138Z,99406.42
2022-09-29T11:11:06.891Z,99408.17
2022-09-29T11:13:40.334Z,99410.58
2022-09-29T11:16:17.009Z,99410.23
2022-09-29T11:18:52.652Z,99408.85
2022-09-29T11:22:10.386Z,99411.85
2022-09-29T11:25:01.378Z,99412.28
2022-09-29T11:27:43.879Z,99413.73
2022-09-29T11:30:17.347Z,99420.44
2022-09-29T11:33:11.881Z,99417.31
2022-09-29T11:35:57.081Z,99415.63
2022-09-29T11:38:45.153Z,99415.77
2022-09-29T11:41:42.008Z,99413.28
2022-09-29T11:44:32.013Z,99417.89
2022-09-29T11:47:12.506Z,99420.09
2022-09-29T11:49:59.027Z,99417.38
2022-09-29T11:52:42.088Z,99416.92
2022-09-29T11:55:38.524Z,99416.73
2022-09-29T11:58:32.476Z,99413.95
2022-09-29T12:01:21.577Z,99415.83
2022-09-29T12:03:56.296Z,99417.80
2022-09-29T12:06:41.383Z,99414.33
2022-09-29T12:09:32.681Z,99415.65
2022-09-29T12:12:23.068Z,99416.17
2022-09-29T12:15:10.186Z,99427.74
2022-09-29T12:17:43.064Z,99425.82
2022-09-29T12:20:20.283Z,99429.45
2022-09-29T12:22:53.047Z,99428.15
2022-09-29T12:25:28.911Z,99434.38
2022-09-29T12:28:05.458Z,99439.14
2022-09-29T12:30:43.351Z,99440.59
2022-09-29T12:33:20.885Z,99440.67
2022-09-29T12:35:59.909Z,99445.90
2022-09-29T12:38:36.534Z,99451.05
2022-09-29T12:41:13.417Z,99450.04
2022-09-29T12:43:51.446Z,99450.61
2022-09-29T12:46:25.135Z,99453.59
2022-09-29T12:49:05.374Z,99457.00
2022-09-29T12:51:39.548Z,99456.11
2022-09-29T12:54:17.447Z,99455.73
2022-09-29T12:56:53.820Z,99452.66
2022-09-29T12:59:32.840Z,99454.85
2022-09-29T13:02:21.845Z,99453.83
2022-09-29T13:05:05.808Z,99457.11
2022-09-29T13:08:04.167Z,99453.20
2022-09-29T13:10:48.058Z,99453.20
2022-09-29T13:14:04.851Z,99453.90
2022-09-29T13:17:08.280Z,99456.87
2022-09-29T13:19:59.768Z,99455.86
2022-09-29T13:22:53.964Z,99458.84
2022-09-29T13:25:32.969Z,99457.98
2022-09-29T13:28:22.268Z,99458.65
2022-09-29T13:30:56.085Z,99462.08
2022-09-29T13:33:26.598Z,99463.65
2022-09-29T13:35:56.118Z,99461.33
2022-09-29T13:38:27.178Z,99460.98
2022-09-29T13:41:17.842Z,99461.33
2022-09-29T13:44:06.931Z,99458.05
2022-09-29T13:46:40.504Z,99456.48
2022-09-29T13:49:27.658Z,99462.19
2022-09-29T13:51:57.742Z,99467.05
2022-09-29T13:54:34.846Z,99473.09
2022-09-29T13:57:28.498Z,99483.55
2022-09-29T14:00:20.395Z,99487.20
2022-09-29T14:03:29.122Z,99495.64
2022-09-29T14:06:36.119Z,99495.77
2022-09-29T14:09:03.214Z,99493.07
2022-09-29T14:11:36.415Z,99495.89
2022-09-29T14:14:09.213Z,99493.21
2022-09-29T14:16:47.148Z,99496.91
2022-09-29T14:19:46.713Z,99499.16
2022-09-29T14:22:51.148Z,99499.27
2022-09-29T14:25:48.598Z,99494.27
2022-09-29T14:28:24.581Z,99494.83
2022-09-29T14:30:55.506Z,99496.92
2022-09-29T14:33:30.750Z,99496.81
2022-09-29T14:36:07.568Z,99500.63
2022-09-29T14:38:41.367Z,99508.42
2022-09-29T14:41:33.415Z,99504.91
2022-09-29T14:44:11.142Z,99506.27
2022-09-29T14:47:20.486Z,99506.92
2022-09-29T14:50:27.864Z,99507.04
2022-09-29T14:53:20.119Z,99507.77
2022-09-29T14:56:01.547Z,99512.70
2022-09-29T14:58:44.346Z,99512.52
2022-09-29T15:01:23.444Z,99514.27
2022-09-29T15:03:54.176Z,99522.39
2022-09-29T15:06:25.298Z,99521.90
2022-09-29T15:08:59.164Z,99523.38
2022-09-29T15:11:37.339Z,99523.61
2022-09-29T15:14:24.221Z,99522.36
2022-09-29T15:17:05.947Z,99523.92
2022-09-29T15:19:56.316Z,99525.39
2022-09-29T15:22:52.957Z,99531.34
2022-09-29T15:25:28.862Z,99529.94
2022-09-29T15:28:01.683Z,99532.79
2022-09-29T15:30:34.526Z,99537.40
2022-09-29T15:33:24.705Z,99542.69
2022-09-29T15:35:57.999Z,99547.10
2022-09-29T15:38:37.943Z,99554.28
2022-09-29T15:41:16.680Z,99555.08
2022-09-29T15:43:53.936Z,99554.63
2022-09-29T15:46:29.383Z,99555.64
2022-09-29T15:49:20.382Z,99563.38
2022-09-29T15:51:58.193Z,99568.13
2022-09-29T15:54:31.568Z,99571.92
2022-09-29T15:57:20.188Z,99574.55
2022-09-29T15:59:53.139Z,99575.59
2022-09-29T16:02:29.776Z,99576.48
2022-09-29T16:05:02.993Z,99578.19
2022-09-29T16:07:34.741Z,99580.48
2022-09-29T16:10:13.435Z,99577.64
2022-09-29T16:12:49.511Z,99583.49
2022-09-29T16:15:28.760Z,99583.77
2022-09-29T16:18:05.631Z,99588.40
2022-09-29T16:20:36.572Z,99601.39
2022-09-29T16:23:17.708Z,99606.80
2022-09-29T16:26:10.071Z,99609.02
2022-09-29T16:28:43.343Z,99612.02
2022-09-29T16:31:26.765Z,99616.52
2022-09-29T16:34:00.768Z,99616.35
2022-09-29T16:36:33.269Z,99622.34
2022-09-29T16:39:04.457Z,99623.95
2022-09-29T16:41:36.023Z,99623.32
2022-09-29T16:44:20.428Z,99623.73
2022-09-29T16:46:52.617Z,99627.89
2022-09-29T16:49:25.644Z,99634.40
2022-09-29T16:51:57.674Z,99632.41
2022-09-29T16:54:31.040Z,99631.63
2022-09-29T16:57:21.429Z,99633.23
2022-09-29T16:59:53.006Z,99637.91
2022-09-29T17:02:23.454Z,99640.08
2022-09-29T17:04:53.675Z,99640.49
2022-09-29T17:07:24.522Z,99642.94
2022-09-29T17:09:56.318Z,99641.58
2022-09-29T17:12:30.242Z,99640.83
2022-09-29T17:14:59.223Z,99642.76
2022-09-29T17:17:28.760Z,99646.09
2022-09-29T17:19:57.259Z,99642.77
2022-09-29T17:22:30.155Z,99644.73
2022-09-29T17:25:07.722Z,99643.86
2022-09-29T17:27:54.522Z,99641.40
2022-09-29T17:30:24.771Z,99637.91
2022-09-29T17:32:57.618Z,99637.67
2022-09-29T17:35:30.673Z,99639.45
2022-09-29T17:37:59.652Z,99643.07
2022-09-29T17:40:34.839Z,99644.79
2022-09-29T17:43:03.931Z,99646.73
2022-09-29T17:45:34.813Z,99654.08
2022-09-29T17:48:04.426Z,99654.66
2022-09-29T17:50:36.027Z,99656.70
2022-09-29T17:53:04.970Z,99663.92
2022-09-29T17:55:34.323Z,99669.91
2022-09-29T17:58:03.244Z,99675.77
2022-09-29T18:00:37.849Z,99677.14
2022-09-29T18:03:08.981Z,99677.55
2022-09-29T18:05:39.826Z,99680.16
2022-09-29T18:08:13.121Z,99678.92
2022-09-29T18:10:44.992Z,99678.77
2022-09-29T18:13:13.624Z,99679.26
2022-09-29T18:15:43.171Z,99677.30
2022-09-29T18:18:15.191Z,99681.23
2022-09-29T18:20:45.717Z,99679.70
2022-09-29T18:23:15.074Z,99686.33
2022-09-29T18:25:47.983Z,99690.83
2022-09-29T18:28:17.923Z,99692.69
2022-09-29T18:30:49.980Z,99690.65
2022-09-29T18:33:21.274Z,99691.17
2022-09-29T18:35:53.726Z,99697.15
2022-09-29T18:38:22.818Z,99703.85
2022-09-29T18:40:53.746Z,99701.48
2022-09-29T18:43:24.537Z,99706.45
2022-09-29T18:45:55.028Z,99708.77
2022-09-29T18:48:28.608Z,99712.35
2022-09-29T18:50:56.988Z,99713.71
2022-09-29T18:53:25.370Z,99708.67
2022-09-29T18:55:58.969Z,99713.38
2022-09-29T18:58:27.587Z,99716.11
2022-09-29T19:00:56.778Z,99722.77
2022-09-29T19:03:27.285Z,99728.19
2022-09-29T19:05:56.524Z,99728.91
2022-09-29T19:08:26.196Z,99731.77
2022-09-29T19:10:57.858Z,99727.39
2022-09-29T19:13:26.321Z,99725.97
2022-09-29T19:15:58.777Z,99730.68
2022-09-29T19:18:27.754Z,99734.73
2022-09-29T19:20:59.266Z,99739.02
2022-09-29T19:23:28.851Z,99741.88
2022-09-29T19:25:57.989Z,99742.24
2022-09-29T19:28:26.925Z,99743.09
2022-09-29T19:31:04.374Z,99738.33
2022-09-29T19:33:32.717Z,99741.02
2022-09-29T19:36:04.993Z,99742.74
2022-09-29T19:38:34.950Z,99746.58
2022-09-29T19:41:04.722Z,99747.32
2022-09-29T19:43:33.259Z,99748.35
2022-09-29T19:46:08.179Z,99747.12
2022-09-29T19:48:37.780Z,99753.60
2022-09-29T19:51:24.661Z,99751.97
2022-09-29T19:54:09.933Z,99754.38
2022-09-29T19:56:40.880Z,99761.08
2022-09-29T19:59:10.814Z,99762.23
2022-09-29T20:01:40.690Z,99763.98
2022-09-29T20:04:11.126Z,99761.16
2022-09-29T20:06:39.517Z,99756.92
2022-09-29T20:09:08.590Z,99761.98
2022-09-29T20:11:38.822Z,99761.45
2022-09-29T20:14:10.522Z,99763.34
2022-09-29T20:16:41.170Z,99765.00
2022-09-29T20:19:13.514Z,99762.09
2022-09-29T20:21:42.785Z,99757.33
2022-09-29T20:24:13.740Z,99753.00
2022-09-29T20:26:43.836Z,99754.02
2022-09-29T20:29:12.952Z,99755.68
2022-09-29T20:31:41.412Z,99761.13
2022-09-29T20:34:11.076Z,99768.87
2022-09-29T20:36:39.862Z,99772.25
2022-09-29T20:39:09.651Z,99780.48
2022-09-29T20:41:38.111Z,99786.35
2022-09-29T20:44:06.391Z,99780.69
2022-09-29T20:46:35.747Z,99781.58
2022-09-29T20:49:04.386Z,99785.68
2022-09-29T20:51:37.728Z,99787.86
2022-09-29T20:54:06.461Z,99787.06
2022-09-29T20:56:41.097Z,99786.96
2022-09-29T20:59:12.889Z,99788.95
2022-09-29T21:01:42.757Z,99791.27
2022-09-29T21:04:13.209Z,99795.01
2022-09-29T21:06:43.932Z,99794.70
2022-09-29T21:09:14.214Z,99795.67
2022-09-29T21:11:43.044Z,99798.45
2022-09-29T21:14:15.770Z,99799.23
2022-09-29T21:16:45.732Z,99797.54
2022-09-29T21:19:14.464Z,99795.02
2022-09-29T21:21:43.344Z,99796.62
2022-09-29T21:24:13.846Z,99798.27
2022-09-29T21:26:43.968Z,99801.89
2022-09-29T21:29:16.850Z,99809.12
2022-09-29T21:31:45.195Z,99806.66
2022-09-29T21:34:14.682Z,99812.03
2022-09-29T21:36:43.222Z,99820.89
2022-09-29T21:39:14.103Z,99820.49
2022-09-29T21:41:44.046Z,99818.45
2022-09-29T21:44:14.844Z,99820.88
2022-09-29T21:46:44.683Z,99825.83
2022-09-29T21:49:20.383Z,99830.67
2022-09-29T21:51:50.522Z,99830.94
2022-09-29T21:54:24.305Z,99832.23
2022-09-29T21:56:53.146Z,99836.40
2022-09-29T21:59:23.290Z,99838.33
2022-09-29T22:01:52.332Z,99841.86
2022-09-29T22:04:27.171Z,99847.23
2022-09-29T22:06:55.619Z,99852.90
2022-09-29T22:09:25.720Z,99853.38
2022-09-29T22:11:54.760Z,99854.05
2022-09-29T22:14:24.228Z,99858.17
2022-09-29T22:16:53.672Z,99862.45
2022-09-29T22:19:25.922Z,99860.05
2022-09-29T22:21:54.944Z,99863.06
2022-09-29T22:24:26.040Z,99870.85
2022-09-29T22:26:54.588Z,99874.05
2022-09-29T22:29:23.554Z,99879.65
2022-09-29T22:31:52.334Z,99885.49
2022-09-29T22:34:23.052Z,99889.27
2022-09-29T22:36:51.418Z,99890.52
2022-09-29T22:39:21.481Z,99890.58
2022-09-29T22:41:52.409Z,99890.05
2022-09-29T22:44:21.747Z,99895.91
2022-09-29T22:46:50.048Z,99902.62
2022-09-29T22:49:21.223Z,99899.47
2022-09-29T22:51:50.006Z,99895.38
2022-09-29T22:54:18.486Z,99897.89
2022-09-29T22:56:48.180Z,99898.75
2022-09-29T22:59:16.970Z,99901.73
2022-09-29T23:01:47.030Z,99903.14
2022-09-29T23:04:15.457Z,99906.88
2022-09-29T23:06:44.170Z,99904.25
2022-09-29T23:09:12.886Z,99909.17
2022-09-29T23:11:41.347Z,99911.65
2022-09-29T23:14:11.050Z,99916.48
2022-09-29T23:16:39.450Z,99917.73
2022-09-29T23:19:07.815Z,99915.48
2022-09-29T23:21:36.220Z,99916.59
2022-09-29T23:24:06.311Z,99918.59
2022-09-29T23:26:34.691Z,99918.99
2022-09-29T23:29:03.467Z,99915.67
2022-09-29T23:31:31.841Z,99914.67
2022-09-29T23:34:00.672Z,99913.87
2022-09-29T23:36:30.976Z,99912.69
2022-09-29T23:39:13.385Z,99902.27
2022-09-29T23:41:44.175Z,99898.25
2022-09-29T23:44:15.311Z,99898.70
2022-09-29T23:46:45.818Z,99906.22
2022-09-29T23:49:17.202Z,99910.27
2022-09-29T23:51:47.314Z,99917.58
2022-09-29T23:54:17.851Z,99923.69
2022-09-29T23:56:48.147Z,99926.88
2022-09-29T23:59:17.122Z,99921.27
